Time;durP1;ratioP1;P1;durP2;ratioP2;P2;SDS_P1;SDS_P2;PMS_P1;PMS_P2;Temp;Humidity;BMP_temperature;BMP_pressure;BME280_temperature;BME280_humidity;BME280_pressure;Samples;Min_cycle;Max_cycle;Signal;HPM_P1;HPM_P2
2021/01/28 00:00:54;;;;;;;24.95;14.00;;;13.70;2201.60;;;;;;5094598;28;20042;-64
2021/01/28 00:03:19;;;;;;;26.23;14.73;;;13.70;2201.60;;;;;;5095136;28;20055;-65
2021/01/28 00:05:45;;;;;;;28.98;14.90;;;13.70;2201.60;;;;;;5094698;28;20139;-65
2021/01/28 00:08:13;;;;;;;25.90;14.57;;;13.60;2201.60;;;;;;5095980;28;20554;-65
2021/01/28 00:10:39;;;;;;;22.33;13.65;;;13.60;2201.60;;;;;;5096157;28;20142;-65
2021/01/28 00:13:07;;;;;;;23.85;14.45;;;13.50;2201.60;;;;;;5096225;28;20036;-65
2021/01/28 00:15:33;;;;;;;26.88;13.98;;;13.50;2201.60;;;;;;5096185;28;20032;-65
2021/01/28 00:18:00;;;;;;;28.73;15.32;;;13.40;2201.60;;;;;;5096314;28;20162;-65
2021/01/28 00:20:31;;;;;;;27.95;14.43;;;13.30;2201.60;;;;;;5096274;28;20024;-65
2021/01/28 00:22:57;;;;;;;26.92;15.13;;;13.30;2201.60;;;;;;5096375;28;20070;-65
2021/01/28 00:25:23;;;;;;;32.10;15.93;;;13.40;2201.60;;;;;;5096354;28;20349;-65
2021/01/28 00:27:50;;;;;;;23.63;13.77;;;13.30;2201.60;;;;;;5095680;28;20110;-66
2021/01/28 00:30:25;;;;;;;25.83;15.07;;;13.40;2201.60;;;;;;5095947;28;20032;-65
2021/01/28 00:32:51;;;;;;;30.13;16.52;;;13.40;2201.60;;;;;;5095316;28;20028;-65
2021/01/28 00:35:24;;;;;;;26.63;15.10;;;13.40;2201.60;;;;;;5081252;28;20028;-66
2021/01/28 00:37:51;;;;;;;25.65;14.85;;;13.30;2201.60;;;;;;5087638;28;20370;-65
2021/01/28 00:40:17;;;;;;;31.65;16.48;;;13.30;2201.60;;;;;;5086020;28;20071;-65
2021/01/28 00:42:42;;;;;;;30.45;15.90;;;13.20;2201.60;;;;;;5085897;28;20066;-65
2021/01/28 00:45:09;;;;;;;27.40;13.88;;;13.20;2201.60;;;;;;5087400;28;20035;-64
2021/01/28 00:47:35;;;;;;;32.30;16.23;;;13.20;2201.60;;;;;;5082583;28;20406;-64
2021/01/28 00:50:00;;;;;;;24.85;14.25;;;13.20;2201.60;;;;;;5077422;28;20122;-64
2021/01/28 00:52:26;;;;;;;43.70;21.67;;;13.20;2201.60;;;;;;5077576;28;20441;-64
2021/01/28 00:54:52;;;;;;;31.90;16.70;;;13.30;2201.60;;;;;;5077879;28;20054;-65
2021/01/28 00:57:17;;;;;;;44.13;20.67;;;13.40;2201.60;;;;;;5077366;28;20029;-64
2021/01/28 00:59:43;;;;;;;25.73;14.90;;;13.40;2201.60;;;;;;5077576;28;20098;-65
2021/01/28 01:02:09;;;;;;;22.70;13.32;;;13.40;2201.60;;;;;;5077553;28;20350;-64
2021/01/28 01:04:35;;;;;;;29.27;16.33;;;13.40;2201.60;;;;;;5077585;28;20028;-65
2021/01/28 01:07:00;;;;;;;24.23;12.77;;;13.30;2201.60;;;;;;5077808;28;20021;-65
2021/01/28 01:09:27;;;;;;;32.58;18.23;;;13.20;2201.60;;;;;;5077143;28;20029;-65
2021/01/28 01:11:55;;;;;;;32.38;17.33;;;13.20;2201.60;;;;;;5077374;28;20107;-65
2021/01/28 01:14:21;;;;;;;27.45;15.45;;;13.20;2201.60;;;;;;5076974;28;20036;-64
2021/01/28 01:16:47;;;;;;;64.85;31.50;;;13.10;2201.60;;;;;;5076685;28;20031;-64
2021/01/28 01:19:15;;;;;;;39.20;20.20;;;13.00;2201.60;;;;;;5077530;28;20029;-65
2021/01/28 01:21:40;;;;;;;27.98;16.48;;;13.00;2201.60;;;;;;5077621;28;20073;-65
2021/01/28 01:24:06;;;;;;;24.15;13.98;;;12.90;2201.60;;;;;;5077312;28;20320;-65
2021/01/28 01:26:32;;;;;;;21.77;13.18;;;13.00;2201.60;;;;;;5077532;28;20431;-66
2021/01/28 01:28:58;;;;;;;29.77;16.38;;;12.90;2201.60;;;;;;5077229;28;20103;-65
2021/01/28 01:31:24;;;;;;;33.10;16.80;;;12.90;2201.60;;;;;;5076664;28;20162;-65
2021/01/28 01:33:49;;;;;;;25.95;15.07;;;0.00;2201.60;;;;;;5077403;28;20115;-65
2021/01/28 01:36:16;;;;;;;31.00;18.70;;;0.00;2201.60;;;;;;5077087;28;20025;-65
2021/01/28 01:38:41;;;;;;;29.02;14.05;;;0.10;2201.60;;;;;;5076615;28;20434;-65
2021/01/28 01:41:07;;;;;;;34.08;16.45;;;0.20;2201.60;;;;;;5077071;28;20059;-65
2021/01/28 01:43:33;;;;;;;33.00;18.55;;;0.20;2201.60;;;;;;5076855;28;20468;-65
2021/01/28 01:46:03;;;;;;;28.00;14.55;;;0.30;2201.60;;;;;;5077058;28;20421;-65
2021/01/28 01:48:36;;;;;;;24.02;13.63;;;0.40;2201.60;;;;;;5076789;28;20334;-65
2021/01/28 01:51:17;;;;;;;23.33;11.65;;;0.30;2201.60;;;;;;5076755;28;20029;-66
2021/01/28 01:54:20;;;;;;;25.42;14.05;;;0.10;2201.60;;;;;;5076996;28;20082;-66
2021/01/28 01:56:52;;;;;;;25.00;14.27;;;0.00;2201.60;;;;;;5075696;28;20084;-65
2021/01/28 01:59:22;;;;;;;27.65;15.18;;;0.10;2201.60;;;;;;5076421;28;20025;-65
2021/01/28 02:02:16;;;;;;;22.75;12.70;;;0.20;2201.60;;;;;;5077248;28;20480;-65
2021/01/28 02:04:44;;;;;;;31.40;17.55;;;0.30;2201.60;;;;;;5076063;28;20497;-64
2021/01/28 02:07:21;;;;;;;26.13;13.73;;;0.30;2201.60;;;;;;5076736;28;20020;-65
2021/01/28 02:09:47;;;;;;;23.40;13.10;;;0.30;2201.60;;;;;;5076562;28;20115;-65
2021/01/28 02:12:14;;;;;;;20.90;12.60;;;0.30;2201.60;;;;;;5076449;28;20402;-64
2021/01/28 02:14:40;;;;;;;18.05;10.63;;;0.40;2201.60;;;;;;5076778;28;20024;-65
2021/01/28 02:17:14;;;;;;;19.63;11.27;;;0.30;2201.60;;;;;;5076749;28;20303;-65
2021/01/28 02:19:45;;;;;;;20.38;11.00;;;0.30;2201.60;;;;;;5076290;28;20024;-65
2021/01/28 02:22:11;;;;;;;24.80;12.05;;;0.30;2201.60;;;;;;5076755;28;20033;-65
2021/01/28 02:25:15;;;;;;;21.00;11.65;;;0.30;2201.60;;;;;;5076696;28;20116;-65
2021/01/28 02:27:43;;;;;;;21.13;10.70;;;0.30;2201.60;;;;;;5076056;28;20031;-64
2021/01/28 02:30:11;;;;;;;22.10;11.20;;;0.30;2201.60;;;;;;5080309;28;20056;-67
2021/01/28 02:32:37;;;;;;;23.20;11.75;;;0.20;2201.60;;;;;;5080538;28;20024;-64
2021/01/28 02:35:03;;;;;;;19.85;11.25;;;0.20;2201.60;;;;;;5079990;28;20089;-63
2021/01/28 02:37:28;;;;;;;21.10;11.60;;;0.20;2201.60;;;;;;5080248;28;20021;-63
2021/01/28 02:39:54;;;;;;;22.63;12.02;;;0.20;2201.60;;;;;;5080186;28;20058;-63
2021/01/28 02:42:32;;;;;;;20.15;12.40;;;0.20;2201.60;;;;;;5079355;28;20069;-63
2021/01/28 02:44:58;;;;;;;20.60;12.25;;;0.10;2201.60;;;;;;5080137;28;20489;-63
2021/01/28 02:47:24;;;;;;;22.42;12.15;;;0.20;2201.60;;;;;;5079807;28;20031;-63
2021/01/28 02:49:51;;;;;;;24.17;12.23;;;0.10;2201.60;;;;;;5080315;28;20031;-64
2021/01/28 02:52:17;;;;;;;21.55;12.57;;;0.20;2201.60;;;;;;5079506;28;20031;-64
2021/01/28 02:54:48;;;;;;;22.85;11.55;;;0.20;2201.60;;;;;;5079932;28;20414;-64
2021/01/28 02:57:15;;;;;;;23.73;12.75;;;0.40;2201.60;;;;;;5079838;28;20404;-63
2021/01/28 02:59:41;;;;;;;21.33;12.23;;;0.40;2201.60;;;;;;5079528;28;20070;-63
2021/01/28 03:02:17;;;;;;;21.67;13.00;;;0.40;2201.60;;;;;;5079750;28;20024;-64
2021/01/28 03:04:44;;;;;;;20.08;11.80;;;0.50;2201.60;;;;;;5079904;28;20051;-64
2021/01/28 03:07:12;;;;;;;20.88;11.15;;;0.50;2201.60;;;;;;5080000;28;20051;-64
2021/01/28 03:09:38;;;;;;;23.10;13.50;;;0.50;2201.60;;;;;;5079109;28;20021;-65
2021/01/28 03:12:09;;;;;;;23.05;13.27;;;0.40;2201.60;;;;;;5079752;28;20254;-64
2021/01/28 03:14:35;;;;;;;22.85;12.18;;;0.40;2201.60;;;;;;5079552;28;20039;-64
2021/01/28 03:17:02;;;;;;;21.98;12.65;;;0.40;2201.60;;;;;;5079222;28;20028;-63
2021/01/28 03:19:28;;;;;;;21.95;12.20;;;0.40;2201.60;;;;;;5079806;28;20470;-64
2021/01/28 03:21:54;;;;;;;22.08;11.82;;;0.30;2201.60;;;;;;5079201;28;20056;-64
2021/01/28 03:24:19;;;;;;;27.85;12.00;;;0.30;2201.60;;;;;;5079370;28;20064;-64
2021/01/28 03:26:45;;;;;;;24.55;12.73;;;0.20;2201.60;;;;;;5079023;28;20021;-64
2021/01/28 03:29:12;;;;;;;23.38;12.35;;;0.20;2201.60;;;;;;5078711;28;20035;-64
2021/01/28 03:31:40;;;;;;;21.33;11.48;;;0.20;2201.60;;;;;;5079206;28;20074;-63
2021/01/28 03:34:06;;;;;;;24.92;14.25;;;0.10;2201.60;;;;;;5079132;28;20466;-64
2021/01/28 03:36:32;;;;;;;19.55;12.20;;;0.10;2201.60;;;;;;5078893;28;20337;-64
2021/01/28 03:38:57;;;;;;;22.10;11.45;;;0.30;2201.60;;;;;;5078796;28;20024;-64
2021/01/28 03:41:23;;;;;;;22.45;10.65;;;0.40;2201.60;;;;;;5078298;28;20035;-65
2021/01/28 03:43:49;;;;;;;20.67;10.88;;;0.40;2201.60;;;;;;5079058;28;20130;-63
2021/01/28 03:46:15;;;;;;;19.20;11.48;;;0.50;2201.60;;;;;;5079253;28;20028;-64
2021/01/28 03:48:41;;;;;;;19.17;11.40;;;0.40;2201.60;;;;;;5078931;28;20423;-64
2021/01/28 03:51:07;;;;;;;19.13;10.82;;;0.30;2201.60;;;;;;5079170;28;20340;-64
2021/01/28 03:53:33;;;;;;;19.75;11.13;;;0.30;2201.60;;;;;;5078511;28;20063;-64
2021/01/28 03:55:59;;;;;;;18.55;10.48;;;0.40;2201.60;;;;;;5078750;28;20060;-65
2021/01/28 03:58:25;;;;;;;19.48;10.88;;;0.40;2201.60;;;;;;5078469;28;20322;-63
2021/01/28 04:00:51;;;;;;;17.17;10.07;;;0.50;2201.60;;;;;;5078687;28;20021;-64
2021/01/28 04:03:17;;;;;;;19.25;11.35;;;0.50;2201.60;;;;;;5078630;28;20028;-64
2021/01/28 04:05:43;;;;;;;18.40;10.95;;;0.60;2201.60;;;;;;5078563;28;20087;-64
2021/01/28 04:08:09;;;;;;;19.58;10.85;;;0.60;2201.60;;;;;;5078829;28;20060;-64
2021/01/28 04:10:37;;;;;;;20.13;11.93;;;0.60;2201.60;;;;;;5078500;28;20027;-64
2021/01/28 04:13:05;;;;;;;20.52;11.65;;;0.50;2201.60;;;;;;5077870;28;20048;-64
2021/01/28 04:15:32;;;;;;;17.30;11.15;;;0.50;2201.60;;;;;;5079064;28;20059;-64
2021/01/28 04:17:58;;;;;;;19.02;11.30;;;0.30;2201.60;;;;;;5098592;28;20414;-64
2021/01/28 04:20:30;;;;;;;20.70;10.65;;;0.40;2201.60;;;;;;5098251;28;20115;-63
2021/01/28 04:22:56;;;;;;;19.25;11.20;;;0.30;2201.60;;;;;;5098755;28;20031;-64
2021/01/28 04:25:22;;;;;;;21.23;11.70;;;0.30;2201.60;;;;;;5098217;28;20401;-64
2021/01/28 04:27:48;;;;;;;22.42;12.25;;;0.20;2201.60;;;;;;5097812;28;20035;-64
2021/01/28 04:30:19;;;;;;;21.60;10.75;;;0.10;2201.60;;;;;;5098602;28;20359;-64
2021/01/28 04:32:45;;;;;;;19.92;11.07;;;0.10;2201.60;;;;;;5097902;28;20452;-65
2021/01/28 04:35:11;;;;;;;19.27;11.27;;;0.10;2201.60;;;;;;5096393;28;20036;-64
2021/01/28 04:37:37;;;;;;;19.73;12.73;;;0.00;2201.60;;;;;;5077956;28;20028;-64
2021/01/28 04:40:08;;;;;;;24.30;12.23;;;0.10;2201.60;;;;;;5077599;28;20028;-64
2021/01/28 04:42:46;;;;;;;19.40;11.50;;;0.00;2201.60;;;;;;5077936;28;20039;-64
2021/01/28 04:45:14;;;;;;;23.88;11.15;;;0.10;2201.60;;;;;;5077865;28;20030;-65
2021/01/28 04:47:51;;;;;;;20.05;11.25;;;0.20;2201.60;;;;;;5085343;28;20016;-65
2021/01/28 04:50:24;;;;;;;21.10;11.52;;;0.30;2201.60;;;;;;5088173;28;20444;-64
2021/01/28 04:52:51;;;;;;;19.40;10.52;;;0.20;2201.60;;;;;;5080878;28;20034;-64
2021/01/28 04:55:22;;;;;;;20.20;11.15;;;0.30;2201.60;;;;;;5097911;28;20131;-64
2021/01/28 04:57:48;;;;;;;22.77;11.85;;;0.30;2201.60;;;;;;5097889;28;20118;-63
2021/01/28 05:00:14;;;;;;;22.38;12.32;;;0.20;2201.60;;;;;;5097173;28;20111;-64
2021/01/28 05:02:40;;;;;;;19.77;11.82;;;0.20;2201.60;;;;;;5088958;28;20032;-64
2021/01/28 05:05:07;;;;;;;23.17;12.60;;;0.20;2201.60;;;;;;5086742;28;20448;-63
2021/01/28 05:07:35;;;;;;;23.52;12.02;;;0.00;2201.60;;;;;;5076358;28;20024;-65
2021/01/28 05:10:01;;;;;;;25.10;12.65;;;0.00;2201.60;;;;;;5077184;28;20334;-65
2021/01/28 05:12:27;;;;;;;19.77;11.70;;;0.00;2201.60;;;;;;5090281;28;20031;-64
2021/01/28 05:14:52;;;;;;;20.48;12.18;;;12.90;2201.60;;;;;;5078338;28;20047;-64
2021/01/28 05:17:20;;;;;;;21.90;12.35;;;0.00;2201.60;;;;;;5096879;28;20032;-65
2021/01/28 05:19:47;;;;;;;20.90;12.23;;;0.00;2201.60;;;;;;5097878;28;20115;-65
2021/01/28 05:22:36;;;;;;;21.52;12.10;;;0.00;2201.60;;;;;;5093878;28;20035;-64
2021/01/28 05:25:13;;;;;;;;;;;0.00;2201.60;;;;;;5084740;28;20043;-65
2021/01/28 05:27:40;;;;;;;22.27;12.50;;;0.00;2201.60;;;;;;5086932;28;19943;-65
2021/01/28 05:30:28;;;;;;;20.83;11.32;;;0.20;2201.60;;;;;;5082822;28;20020;-64
2021/01/28 05:32:54;;;;;;;20.63;12.45;;;0.30;2201.60;;;;;;5076772;28;20081;-64
2021/01/28 05:35:25;;;;;;;22.23;11.48;;;0.50;2201.60;;;;;;5077160;28;20037;-64
2021/01/28 05:38:06;;;;;;;21.25;12.63;;;0.50;2201.60;;;;;;5077096;28;20043;-65
2021/01/28 05:40:32;;;;;;;21.42;12.25;;;0.70;2201.60;;;;;;5077223;28;20414;-64
2021/01/28 05:42:59;;;;;;;22.45;12.25;;;0.70;2201.60;;;;;;5076530;28;20040;-65
2021/01/28 05:45:37;;;;;;;19.40;12.52;;;0.70;2201.60;;;;;;5077370;28;20021;-64
2021/01/28 05:48:14;;;;;;;;;;;0.60;2201.60;;;;;;5082861;28;20024;-65
2021/01/28 05:50:40;;;;;;;21.33;11.88;;;0.50;2201.60;;;;;;5096983;28;19908;-65
2021/01/28 05:53:11;;;;;;;21.42;12.55;;;0.50;2201.60;;;;;;5091080;28;20043;-64
2021/01/28 05:55:38;;;;;;;20.15;12.30;;;0.60;2201.60;;;;;;5077287;28;20033;-65
2021/01/28 05:58:22;;;;;;;20.85;12.35;;;0.50;2201.60;;;;;;5076940;28;20048;-64
2021/01/28 06:01:17;;;;;;;19.27;10.95;;;0.60;2201.60;;;;;;5093787;28;20024;-64
2021/01/28 06:04:08;;;;;;;21.00;12.20;;;0.60;2201.60;;;;;;5091495;28;20036;-64
2021/01/28 06:06:51;;;;;;;20.23;11.38;;;0.60;2201.60;;;;;;5099777;28;20116;-64
2021/01/28 06:09:23;;;;;;;45.83;22.65;;;0.60;2201.60;;;;;;5101114;28;20028;-64
2021/01/28 06:12:25;;;;;;;20.38;11.52;;;0.60;2201.60;;;;;;5100577;28;20024;-64
2021/01/28 06:15:07;;;;;;;25.60;14.05;;;0.80;2201.60;;;;;;5101087;28;20077;-65
2021/01/28 06:17:52;;;;;;;19.15;11.27;;;0.80;2201.60;;;;;;5100773;28;20043;-65
2021/01/28 06:20:39;;;;;;;19.83;11.80;;;0.80;2201.60;;;;;;5101238;28;20031;-65
2021/01/28 06:23:41;;;;;;;21.73;12.70;;;0.90;2201.60;;;;;;5100890;28;20024;-65
2021/01/28 06:26:28;;;;;;;22.33;11.65;;;0.90;2201.60;;;;;;5100476;28;20046;-65
2021/01/28 06:29:00;;;;;;;19.35;12.20;;;25.60;2201.60;;;;;;5100783;28;20024;-64
2021/01/28 06:32:01;;;;;;;21.40;13.68;;;0.80;2201.60;;;;;;5100445;28;20314;-64
2021/01/28 06:34:47;;;;;;;26.27;13.63;;;0.80;2201.60;;;;;;5100566;28;20064;-64
2021/01/28 06:37:43;;;;;;;21.00;12.05;;;0.90;2201.60;;;;;;5100323;28;20028;-65
2021/01/28 06:40:14;;;;;;;31.45;17.25;;;25.60;2201.60;;;;;;5100629;28;20059;-65
2021/01/28 06:42:49;;;;;;;20.70;12.38;;;25.60;2201.60;;;;;;5100254;28;20028;-65
2021/01/28 06:45:20;;;;;;;27.45;16.25;;;25.80;2201.60;;;;;;5100223;28;20031;-65
2021/01/28 06:47:59;;;;;;;19.30;11.55;;;25.80;2201.60;;;;;;5100703;28;20024;-65
2021/01/28 06:50:51;;;;;;;23.00;14.70;;;25.80;2201.60;;;;;;5100657;28;20024;-64
2021/01/28 06:53:58;;;;;;;20.92;13.23;;;25.60;2201.60;;;;;;5100279;28;20027;-64
2021/01/28 06:56:51;;;;;;;23.20;13.05;;;25.70;2201.60;;;;;;5100578;28;20032;-65
2021/01/28 06:59:41;;;;;;;18.48;10.75;;;25.60;2201.60;;;;;;5100236;28;20020;-65
2021/01/28 07:02:30;;;;;;;20.75;10.55;;;25.60;2201.60;;;;;;5100438;28;20027;-64
2021/01/28 07:05:08;;;;;;;;;;;25.60;2201.60;;;;;;5100483;28;20071;-66
2021/01/28 07:07:44;;;;;;;17.30;11.25;;;25.60;2201.60;;;;;;5100022;28;19908;-65
2021/01/28 07:10:23;;;;;;;24.08;12.88;;;25.60;2201.60;;;;;;5100271;28;20043;-65
2021/01/28 07:12:51;;;;;;;15.95;9.80;;;25.70;2201.60;;;;;;5100221;28;20115;-64
2021/01/28 07:15:19;;;;;;;18.83;12.15;;;25.80;2201.60;;;;;;5098720;28;20122;-65
2021/01/28 07:17:57;;;;;;;17.15;10.60;;;25.80;2201.60;;;;;;5099800;28;20020;-64
2021/01/28 07:20:55;;;;;;;18.48;11.25;;;25.80;2201.60;;;;;;5099265;28;20019;-65
2021/01/28 07:23:32;;;;;;;18.33;10.53;;;25.90;2201.60;;;;;;5099456;28;20028;-65
2021/01/28 07:26:16;;;;;;;19.23;11.18;;;25.90;2201.60;;;;;;5099407;28;20115;-65
2021/01/28 07:28:43;;;;;;;21.40;12.77;;;25.90;2201.60;;;;;;5099699;28;20024;-65
2021/01/28 07:31:18;;;;;;;59.90;32.65;;;26.00;2201.60;;;;;;5099794;28;20409;-65
2021/01/28 07:34:06;;;;;;;33.72;20.48;;;25.90;2201.60;;;;;;5099473;28;20028;-65
2021/01/28 07:36:40;;;;;;;17.48;11.57;;;25.90;2201.60;;;;;;5099517;28;20046;-65
2021/01/28 07:39:28;;;;;;;16.45;11.02;;;26.00;2201.60;;;;;;5099402;28;20398;-65
2021/01/28 07:42:00;;;;;;;19.50;11.40;;;26.00;2201.60;;;;;;5098454;28;20028;-66
2021/01/28 07:44:38;;;;;;;14.95;9.63;;;26.10;2201.60;;;;;;5099580;28;20038;-65
2021/01/28 07:47:12;;;;;;;16.60;11.32;;;26.30;2201.60;;;;;;5093683;28;20390;-65
2021/01/28 07:49:38;;;;;;;18.58;11.27;;;51.20;2227.20;;;;;;5088383;28;20488;-65
2021/01/28 07:52:15;;;;;;;16.23;10.73;;;51.40;2227.20;;;;;;5087210;28;20111;-65
2021/01/28 07:54:51;;;;;;;17.83;11.02;;;51.70;2227.20;;;;;;5086719;28;20078;-65
2021/01/28 07:57:29;;;;;;;22.35;12.00;;;51.70;2227.20;;;;;;5080607;28;20052;-65
2021/01/28 07:59:59;;;;;;;58.42;37.95;;;51.90;2227.20;;;;;;5078947;28;20024;-65
2021/01/28 08:02:29;;;;;;;44.15;25.30;;;51.90;2227.20;;;;;;5078191;28;20020;-66
2021/01/28 08:05:04;;;;;;;21.73;13.50;;;76.80;2227.20;;;;;;5078438;28;20045;-65
2021/01/28 08:07:38;;;;;;;17.20;10.98;;;76.90;2227.20;;;;;;5078450;28;20406;-65
2021/01/28 08:10:38;;;;;;;21.80;14.52;;;77.00;2201.60;;;;;;5078194;28;20038;-65
2021/01/28 08:13:26;;;;;;;21.35;12.27;;;77.20;2176.00;;;;;;5078723;28;20475;-66
2021/01/28 08:16:06;;;;;;;15.00;10.02;;;77.50;2150.40;;;;;;5078395;28;20410;-65
2021/01/28 08:18:37;;;;;;;17.38;9.70;;;77.60;2099.20;;;;;;5078660;28;20067;-65
2021/01/28 08:21:18;;;;;;;15.05;9.43;;;77.60;2048.00;;;;;;5078295;28;20445;-65
2021/01/28 08:23:44;;;;;;;15.77;10.27;;;102.50;2022.40;;;;;;5077959;28;20036;-64
2021/01/28 08:26:21;;;;;;;15.50;10.23;;;77.70;1971.20;;;;;;5077892;28;20418;-64
2021/01/28 08:28:47;;;;;;;18.48;10.10;;;77.70;1996.80;;;;;;5077934;28;20074;-65
2021/01/28 08:31:32;;;;;;;17.50;10.70;;;77.70;2048.00;;;;;;5077804;28;20025;-64
2021/01/28 08:34:01;;;;;;;17.38;11.23;;;102.40;1996.80;;;;;;5078282;28;20024;-65
2021/01/28 08:36:40;;;;;;;;;;;102.60;2022.40;;;;;;5078302;28;20028;-64
2021/01/28 08:39:16;;;;;;;;;;;102.40;1971.20;;;;;;5076851;28;20287;-65
2021/01/28 08:41:43;;;;;;;;;;;102.50;1971.20;;;;;;5077825;28;19904;-64
2021/01/28 08:44:11;;;;;;;;;;;102.70;1971.20;;;;;;5077074;28;20230;-65
2021/01/28 08:46:38;;;;;;;;;;;102.80;1971.20;;;;;;5076596;28;19927;-65
2021/01/28 08:49:14;;;;;;;;;;;103.00;1945.60;;;;;;5076399;28;20228;-65
2021/01/28 08:51:42;;;;;;;;;;;103.20;1920.00;;;;;;5077500;28;19904;-64
2021/01/28 08:54:20;;;;;;;;;;;128.00;1920.00;;;;;;5077381;28;19978;-65
2021/01/28 08:56:47;;;;;;;;;;;128.00;1894.40;;;;;;5078184;28;19915;-65
2021/01/28 08:59:14;;;;;;;;;;;128.10;1894.40;;;;;;5077651;28;19905;-64
2021/01/28 09:01:42;;;;;;;;;;;128.10;1894.40;;;;;;5078328;28;19908;-65
2021/01/28 09:04:28;;;;;;;;;;;128.30;1894.40;;;;;;5077274;28;20270;-64
2021/01/28 09:06:53;;;;;;;;;;;128.50;1868.80;;;;;;5070409;28;19920;-64
2021/01/28 09:09:30;;;;;;;;;;;128.30;1868.80;;;;;;5077886;28;19904;-66
2021/01/28 09:12:16;;;;;;;;;;;128.50;1843.20;;;;;;5077594;28;19908;-65
2021/01/28 09:14:41;;;;;;;;;;;128.60;1843.20;;;;;;5076541;28;19912;-65
2021/01/28 09:17:29;;;;;;;;;;;128.60;1817.60;;;;;;5077577;28;20294;-65
2021/01/28 09:19:56;;;;;;;;;;;128.80;1817.60;;;;;;5076312;28;20290;-65
2021/01/28 09:22:33;;;;;;;;;;;153.80;1766.40;;;;;;5076817;28;19950;-65
2021/01/28 09:25:00;;;;;;;;;;;153.70;1792.00;;;;;;5077380;28;19998;-67
2021/01/28 09:27:30;;;;;;;;;;;153.80;1792.00;;;;;;5077998;28;19904;-66
2021/01/28 09:29:55;;;;;;;;;;;153.90;1792.00;;;;;;5077364;28;19947;-65
2021/01/28 09:32:24;;;;;;;;;;;153.80;1766.40;;;;;;5077275;28;19904;-66
2021/01/28 09:35:14;;;;;;;;;;;153.90;1766.40;;;;;;5077643;28;20186;-65
2021/01/28 09:37:41;;;;;;;;;;;153.80;1766.40;;;;;;5076841;28;20187;-66
2021/01/28 09:40:25;;;;;;;;;;;153.70;1792.00;;;;;;5076039;28;19911;-65
2021/01/28 09:43:11;;;;;;;;;;;153.70;1792.00;;;;;;5076203;28;20226;-66
2021/01/28 09:45:37;;;;;;;;;;;153.80;1817.60;;;;;;5076382;28;20272;-65
2021/01/28 09:48:03;;;;;;;;;;;154.20;1766.40;;;;;;5077173;28;19908;-65
2021/01/28 09:50:29;;;;;;;;;;;154.20;1766.40;;;;;;5077207;28;20301;-66
2021/01/28 09:52:54;;;;;;;;;;;154.50;1766.40;;;;;;5076947;28;19910;-66
2021/01/28 09:55:22;;;;;;;;;;;179.40;1715.20;;;;;;5077734;28;19979;-65
2021/01/28 09:57:48;;;;;;;;;;;179.40;1689.60;;;;;;5076854;28;19957;-65
2021/01/28 10:00:17;;;;;;;;;;;179.50;1689.60;;;;;;5077690;28;19912;-65
2021/01/28 10:02:42;;;;;;;;;;;180.00;1664.00;;;;;;5077112;28;20195;-65
2021/01/28 10:05:09;;;;;;;;;;;180.10;1664.00;;;;;;5077254;28;19916;-65
2021/01/28 10:07:35;;;;;;;;;;;204.80;1638.40;;;;;;5076963;28;20347;-65
2021/01/28 10:10:02;;;;;;;;;;;204.90;1638.40;;;;;;5077001;28;19995;-66
2021/01/28 10:12:28;;;;;;;;;;;205.00;1612.80;;;;;;5076938;28;20282;-66
2021/01/28 10:14:54;;;;;;;;;;;205.20;1612.80;;;;;;5081207;28;19920;-64
2021/01/28 10:17:20;;;;;;;;;;;205.20;1612.80;;;;;;5086692;28;19911;-65
2021/01/28 10:19:45;;;;;;;;;;;205.40;1587.20;;;;;;5084130;28;20214;-65
2021/01/28 10:22:12;;;;;;;;;;;205.60;1536.00;;;;;;5077418;28;19904;-66
2021/01/28 10:24:37;;;;;;;;;;;230.40;1536.00;;;;;;5076864;28;20222;-65
2021/01/28 10:27:03;;;;;;;;;;;230.60;1536.00;;;;;;5077198;28;19974;-64
2021/01/28 10:29:29;;;;;;;;;;;230.80;1484.80;;;;;;5076708;28;19934;-66
2021/01/28 10:31:54;;;;;;;;;;;230.90;1459.20;;;;;;5077392;28;19926;-66
2021/01/28 10:34:20;;;;;;;;;;;230.90;1484.80;;;;;;5076769;28;19962;-65
2021/01/28 10:36:46;;;;;;;;;;;231.00;1459.20;;;;;;5076134;28;19908;-65
2021/01/28 10:39:12;;;;;;;;;;;256.10;1408.00;;;;;;5076527;28;19904;-64
2021/01/28 10:41:37;;;;;;;;;;;256.10;1408.00;;;;;;5076207;28;19954;-65
2021/01/28 10:44:03;;;;;;;;;;;256.00;1408.00;;;;;;5077026;28;19958;-65
2021/01/28 10:46:28;;;;;;;;;;;231.30;1408.00;;;;;;5077265;28;19912;-65
2021/01/28 10:48:54;;;;;;;;;;;256.00;1433.60;;;;;;5076871;28;19927;-65
2021/01/28 10:51:21;;;;;;;;;;;231.10;1433.60;;;;;;5084752;28;20266;-65
2021/01/28 10:53:53;;;;;;;;;;;230.90;1433.60;;;;;;5089556;28;19912;-66
2021/01/28 10:56:18;;;;;;;;;;;230.70;1433.60;;;;;;5088947;28;19912;-64
2021/01/28 10:58:44;;;;;;;;;;;230.50;1459.20;;;;;;5090530;28;19999;-64
2021/01/28 11:01:10;;;;;;;;;;;230.40;1459.20;;;;;;5089139;28;20044;-65
2021/01/28 11:03:37;;;;;;;;;;;205.50;1536.00;;;;;;5088642;28;20293;-65
2021/01/28 11:06:03;;;;;;;;;;;205.20;1510.40;;;;;;5100373;28;19923;-64
2021/01/28 11:08:30;;;;;;;;;;;204.90;1536.00;;;;;;5099583;28;19908;-63
2021/01/28 11:10:56;;;;;;;;;;;180.00;1587.20;;;;;;5100123;28;19911;-64
2021/01/28 11:13:22;;;;;;;;;;;179.30;1612.80;;;;;;5099959;28;20218;-64
2021/01/28 11:15:47;;;;;;;;;;;179.40;1638.40;;;;;;5100208;28;19908;-64
2021/01/28 11:18:13;;;;;;;;;;;179.50;1638.40;;;;;;5099377;28;20319;-64
2021/01/28 11:20:39;;;;;;;;;;;179.80;1612.80;;;;;;5099471;28;19903;-65
2021/01/28 11:23:05;;;;;;;;;;;179.90;1612.80;;;;;;5099309;28;19992;-64
2021/01/28 11:25:31;;;;;;;;;;;204.80;1587.20;;;;;;5100317;28;19949;-64
2021/01/28 11:27:57;;;;;;;;;;;205.10;1536.00;;;;;;5099352;28;19930;-64
2021/01/28 11:30:24;;;;;;;;;;;205.40;1536.00;;;;;;5099938;28;19904;-64
2021/01/28 11:32:50;;;;;;;;;;;205.30;1510.40;;;;;;5099704;28;19908;-66
2021/01/28 11:35:19;;;;;;;;;;;205.10;1536.00;;;;;;5099498;28;19912;-65
2021/01/28 11:37:45;;;;;;;;;;;205.30;1536.00;;;;;;5099821;28;19904;-65
2021/01/28 11:40:12;;;;;;;;;;;205.70;1510.40;;;;;;5099712;28;19915;-65
2021/01/28 11:42:38;;;;;;;;;;;230.40;1510.40;;;;;;5099631;28;19904;-65
2021/01/28 11:45:04;;;;;;;;;;;205.40;1510.40;;;;;;5099595;28;19990;-64
2021/01/28 11:47:30;;;;;;;;;;;205.40;1536.00;;;;;;5099572;28;19945;-64
2021/01/28 11:49:56;;;;;;;;;;;205.10;1561.60;;;;;;5099256;28;20318;-65
2021/01/28 11:52:23;;;;;;;;;;;204.90;1561.60;;;;;;5098917;28;19904;-66
2021/01/28 11:54:49;;;;;;;;;;;180.00;1612.80;;;;;;5098897;28;19934;-64
2021/01/28 11:57:14;;;;;;;;;;;179.70;1587.20;;;;;;5099115;28;19908;-66
2021/01/28 11:59:40;;;;;;;;;;;179.80;1587.20;;;;;;5098715;28;19911;-65
2021/01/28 12:02:06;;;;;;;;;;;179.70;1587.20;;;;;;5098688;28;19911;-65
2021/01/28 12:04:31;;;;;;;;;;;179.80;1612.80;;;;;;5098632;28;19908;-65
2021/01/28 12:06:57;;;;;;;;;;;179.80;1612.80;;;;;;5099353;28;19916;-66
2021/01/28 12:09:22;;;;;;;;;;;179.90;1664.00;;;;;;5098865;28;19908;-65
2021/01/28 12:11:48;;;;;;;;;;;204.90;1612.80;;;;;;5099153;28;19941;-65
2021/01/28 12:14:14;;;;;;;;;;;205.10;1536.00;;;;;;5098746;28;19912;-64
2021/01/28 12:16:40;;;;;;;;;;;205.50;1561.60;;;;;;5098995;28;19908;-65
2021/01/28 12:19:08;;;;;;;;;;;230.40;1510.40;;;;;;5098959;28;20019;-64
2021/01/28 12:21:34;;;;;;;;;;;230.70;1510.40;;;;;;5099204;28;19908;-64
2021/01/28 12:24:00;;;;;;;;;;;230.90;1484.80;;;;;;5098905;28;19915;-66
2021/01/28 12:26:25;;;;;;;;;;;231.30;1459.20;;;;;;5098826;28;19911;-66
2021/01/28 12:28:51;;;;;;;;;;;256.20;1382.40;;;;;;5098964;28;20205;-65
2021/01/28 12:31:16;;;;;;;;;;;231.30;1408.00;;;;;;5099380;28;19990;-64
2021/01/28 12:33:42;;;;;;;;;;;231.30;1459.20;;;;;;5098718;28;19912;-65
2021/01/28 12:36:08;;;;;;;;;;;281.80;1382.40;;;;;;5099034;28;19911;-65
2021/01/28 12:38:34;;;;;;;;;;;282.00;1356.80;;;;;;5098642;28;19908;-67
2021/01/28 12:41:00;;;;;;;;;;;307.20;1356.80;;;;;;5099077;28;19911;-65
2021/01/28 12:43:26;;;;;;;;;;;307.20;1408.00;;;;;;5098852;28;19911;-65
2021/01/28 12:45:51;;;;;;;;;;;307.90;1356.80;;;;;;5098535;28;19918;-64
2021/01/28 12:48:17;;;;;;;;;;;307.80;1280.00;;;;;;5098808;28;19937;-64
2021/01/28 12:50:43;;;;;;;;;;;307.60;1254.40;;;;;;5098908;28;19904;-64
2021/01/28 12:53:08;;;;;;;;;;;281.70;1280.00;;;;;;5098405;28;20210;-65
2021/01/28 12:55:34;;;;;;;;;;;256.20;1305.60;;;;;;5098067;28;20323;-65
2021/01/28 12:58:00;;;;;;;;;;;230.90;1382.40;;;;;;5098605;28;19904;-64
2021/01/28 13:00:26;;;;;;;;;;;205.70;1433.60;;;;;;5096822;28;19908;-65